createdAt,value
2023-05-16T00:00:29.299Z,39.48
2023-05-16T00:01:28.679Z,39.80
2023-05-16T00:02:29.322Z,40.44
2023-05-16T00:03:29.531Z,39.16
2023-05-16T00:04:29.731Z,39.80
2023-05-16T00:05:29.575Z,39.96
2023-05-16T00:06:29.517Z,42.70
2023-05-16T00:07:28.640Z,40.28
2023-05-16T00:08:29.558Z,39.16
2023-05-16T00:09:28.628Z,39.32
2023-05-16T00:10:28.878Z,38.83
2023-05-16T00:11:29.495Z,51.40
2023-05-16T00:12:29.651Z,39.48
2023-05-16T00:13:29.563Z,39.32
2023-05-16T00:14:28.963Z,39.16
2023-05-16T00:15:29.648Z,39.32
2023-05-16T00:16:29.602Z,38.67
2023-05-16T00:17:28.696Z,38.03
2023-05-16T00:18:28.558Z,39.16
2023-05-16T00:19:28.583Z,41.09
2023-05-16T00:20:29.013Z,39.16
2023-05-16T00:21:28.762Z,40.44
2023-05-16T00:22:28.545Z,41.25
2023-05-16T00:23:28.586Z,38.51
2023-05-16T00:24:28.532Z,39.16
2023-05-16T00:25:28.598Z,40.77
2023-05-16T00:26:28.631Z,38.51
2023-05-16T00:27:28.627Z,39.16
2023-05-16T00:28:28.538Z,38.83
2023-05-16T00:29:28.789Z,46.08
2023-05-16T00:30:28.980Z,40.44
2023-05-16T00:31:28.930Z,44.96
2023-05-16T00:32:28.933Z,39.96
2023-05-16T00:33:28.998Z,40.44
2023-05-16T00:34:28.559Z,44.63
2023-05-16T00:35:29.080Z,41.89
2023-05-16T00:36:28.455Z,40.28
2023-05-16T00:37:28.598Z,41.41
2023-05-16T00:38:28.436Z,39.16
2023-05-16T00:39:28.436Z,38.67
2023-05-16T00:40:28.613Z,39.32
2023-05-16T00:41:28.468Z,39.16
2023-05-16T00:42:28.485Z,39.80
2023-05-16T00:43:28.486Z,40.12
2023-05-16T00:44:28.501Z,41.89
2023-05-16T00:45:28.560Z,40.44
2023-05-16T00:46:28.546Z,39.96
2023-05-16T00:47:28.418Z,41.09
2023-05-16T00:48:28.349Z,40.93
2023-05-16T00:49:28.402Z,40.77
2023-05-16T00:50:28.599Z,39.32
2023-05-16T00:51:28.519Z,38.99
2023-05-16T00:52:28.578Z,40.12
2023-05-16T00:53:28.544Z,41.89
2023-05-16T00:54:28.467Z,40.44
2023-05-16T00:55:28.356Z,40.12
2023-05-16T00:56:28.365Z,40.12
2023-05-16T00:57:28.696Z,39.48
2023-05-16T00:58:28.697Z,39.48
2023-05-16T00:59:28.429Z,45.44
2023-05-16T01:00:28.649Z,40.44
2023-05-16T01:01:28.779Z,42.22
2023-05-16T01:02:28.507Z,40.77
2023-05-16T01:03:28.352Z,39.80
2023-05-16T01:04:28.757Z,38.67
2023-05-16T01:05:28.809Z,47.37
2023-05-16T01:06:28.791Z,39.80
2023-05-16T01:07:28.611Z,43.99
2023-05-16T01:08:28.666Z,40.12
2023-05-16T01:09:28.811Z,38.99
2023-05-16T01:10:28.502Z,39.96
2023-05-16T01:11:28.852Z,41.25
2023-05-16T01:12:28.849Z,39.96
2023-05-16T01:13:28.863Z,39.80
2023-05-16T01:14:28.873Z,41.57
2023-05-16T01:15:28.429Z,43.18
2023-05-16T01:16:28.233Z,43.18
2023-05-16T01:17:28.202Z,40.77
2023-05-16T01:18:28.176Z,41.09
2023-05-16T01:19:28.444Z,39.96
2023-05-16T01:20:28.381Z,41.41
2023-05-16T01:21:28.403Z,40.61
2023-05-16T01:22:28.418Z,40.61
2023-05-16T01:23:28.416Z,42.54
2023-05-16T01:24:28.448Z,43.67
2023-05-16T01:25:28.437Z,57.85
2023-05-16T01:26:28.155Z,44.63
2023-05-16T01:27:28.141Z,42.70
2023-05-16T01:28:28.402Z,42.54
2023-05-16T01:29:28.523Z,41.73
2023-05-16T01:30:28.097Z,41.41
2023-05-16T01:31:28.574Z,43.02
2023-05-16T01:32:28.575Z,43.51
2023-05-16T01:33:28.556Z,42.38
2023-05-16T01:34:28.105Z,43.67
2023-05-16T01:35:28.952Z,45.28
2023-05-16T01:36:28.108Z,42.86
2023-05-16T01:37:28.730Z,45.44
2023-05-16T01:38:28.651Z,43.83
2023-05-16T01:39:27.992Z,44.96
2023-05-16T01:40:28.748Z,48.34
2023-05-16T01:41:28.987Z,48.34
2023-05-16T01:42:28.361Z,51.88
2023-05-16T01:43:28.847Z,52.21
2023-05-16T01:44:28.064Z,50.43
2023-05-16T01:45:28.298Z,57.36
2023-05-16T01:46:28.026Z,48.34
2023-05-16T01:47:28.079Z,53.66
2023-05-16T01:48:28.094Z,46.41
2023-05-16T01:49:28.149Z,47.70
2023-05-16T01:50:28.228Z,51.24
2023-05-16T01:51:28.302Z,46.25
2023-05-16T01:52:28.033Z,42.70
2023-05-16T01:53:28.406Z,42.86
2023-05-16T01:54:27.897Z,44.63
2023-05-16T01:55:28.051Z,48.02
2023-05-16T01:56:27.933Z,54.14
2023-05-16T01:57:27.904Z,51.56
2023-05-16T01:58:28.247Z,50.11
2023-05-16T01:59:27.865Z,48.18
2023-05-16T02:00:27.875Z,50.92
2023-05-16T02:01:27.966Z,56.88
2023-05-16T02:02:27.951Z,48.66
2023-05-16T02:03:27.950Z,46.89
2023-05-16T02:04:27.927Z,46.41
2023-05-16T02:05:28.186Z,49.15
2023-05-16T02:06:27.995Z,47.70
2023-05-16T02:07:27.968Z,47.70
2023-05-16T02:08:27.990Z,47.70
2023-05-16T02:09:27.808Z,47.37
2023-05-16T02:10:28.005Z,49.15
2023-05-16T02:11:27.798Z,49.15
2023-05-16T02:12:28.036Z,48.82
2023-05-16T02:13:27.809Z,50.76
2023-05-16T02:14:27.778Z,57.85
2023-05-16T02:15:28.077Z,45.12
2023-05-16T02:16:28.140Z,47.05
2023-05-16T02:17:27.814Z,45.92
2023-05-16T02:18:27.828Z,44.47
2023-05-16T02:19:27.781Z,48.98
2023-05-16T02:20:27.779Z,60.75
2023-05-16T02:21:28.025Z,47.53
2023-05-16T02:22:28.094Z,60.59
2023-05-16T02:23:28.155Z,49.15
2023-05-16T02:24:28.104Z,48.34
2023-05-16T02:25:28.330Z,48.98
2023-05-16T02:26:28.111Z,50.27
2023-05-16T02:27:27.706Z,52.53
2023-05-16T02:28:27.732Z,58.33
2023-05-16T02:29:27.697Z,61.39
2023-05-16T02:30:27.705Z,51.72
2023-05-16T02:31:27.752Z,50.11
2023-05-16T02:32:27.762Z,51.72
2023-05-16T02:33:27.755Z,61.87
2023-05-16T02:34:27.729Z,57.69
2023-05-16T02:35:29.266Z,48.66
2023-05-16T02:36:28.159Z,54.14
2023-05-16T02:37:27.654Z,55.91
2023-05-16T02:38:27.635Z,53.01
2023-05-16T02:39:27.658Z,58.49
2023-05-16T02:40:27.659Z,59.62
2023-05-16T02:41:27.571Z,56.24
2023-05-16T02:42:27.589Z,57.52
2023-05-16T02:43:27.694Z,51.88
2023-05-16T02:44:27.597Z,50.76
2023-05-16T02:45:27.942Z,58.81
2023-05-16T02:46:28.356Z,50.11
2023-05-16T02:47:27.914Z,54.14
2023-05-16T02:48:27.635Z,63.49
2023-05-16T02:49:27.780Z,58.49
2023-05-16T02:50:27.779Z,66.06
2023-05-16T02:51:27.796Z,53.33
2023-05-16T02:52:27.815Z,49.15
2023-05-16T02:53:27.836Z,52.21
2023-05-16T02:54:27.836Z,53.98
2023-05-16T02:55:27.866Z,50.27
2023-05-16T02:56:28.389Z,54.95
2023-05-16T02:57:27.887Z,50.43
2023-05-16T02:58:27.467Z,53.17
2023-05-16T02:59:27.907Z,52.21
2023-05-16T03:00:27.929Z,51.08
2023-05-16T03:01:27.951Z,57.52
2023-05-16T03:02:27.974Z,51.08
2023-05-16T03:03:28.051Z,52.69
2023-05-16T03:04:27.803Z,53.66
2023-05-16T03:05:28.215Z,52.85
2023-05-16T03:06:28.273Z,51.88
2023-05-16T03:07:28.012Z,53.17
2023-05-16T03:08:28.048Z,57.04
2023-05-16T03:09:27.565Z,60.26
2023-05-16T03:10:27.379Z,54.14
2023-05-16T03:11:28.061Z,55.59
2023-05-16T03:12:27.402Z,52.21
2023-05-16T03:13:27.368Z,58.49
2023-05-16T03:14:27.350Z,52.69
2023-05-16T03:15:27.685Z,52.37
2023-05-16T03:16:27.473Z,48.02
2023-05-16T03:17:27.546Z,60.42
2023-05-16T03:18:27.588Z,54.30
2023-05-16T03:19:27.714Z,49.47
2023-05-16T03:20:27.686Z,50.60
2023-05-16T03:21:27.755Z,51.88
2023-05-16T03:22:27.445Z,51.88
2023-05-16T03:23:27.925Z,50.60
2023-05-16T03:24:27.386Z,49.95
2023-05-16T03:25:27.736Z,52.69
2023-05-16T03:26:27.280Z,55.43
2023-05-16T03:27:27.288Z,50.43
2023-05-16T03:28:27.301Z,50.11
2023-05-16T03:29:27.321Z,48.66
2023-05-16T03:30:27.408Z,59.78
2023-05-16T03:31:27.363Z,57.04
2023-05-16T03:32:27.382Z,52.69
2023-05-16T03:33:27.296Z,54.46
2023-05-16T03:34:27.372Z,50.11
2023-05-16T03:35:27.862Z,63.81
2023-05-16T03:36:27.227Z,49.63
2023-05-16T03:37:27.295Z,53.33
2023-05-16T03:38:27.369Z,49.31
2023-05-16T03:39:27.455Z,60.91
2023-05-16T03:40:27.447Z,49.15
2023-05-16T03:41:27.172Z,57.04
2023-05-16T03:42:27.209Z,49.15
2023-05-16T03:43:27.259Z,50.11
2023-05-16T03:44:27.337Z,48.98
2023-05-16T03:45:27.798Z,51.56
2023-05-16T03:46:27.529Z,51.24
2023-05-16T03:47:27.555Z,49.63
2023-05-16T03:48:27.621Z,48.50
2023-05-16T03:49:27.337Z,50.43
2023-05-16T03:50:27.571Z,50.27
2023-05-16T03:51:27.615Z,58.33
2023-05-16T03:52:27.615Z,46.08
2023-05-16T03:53:27.619Z,44.96
2023-05-16T03:54:27.627Z,44.63
2023-05-16T03:55:27.618Z,53.82
2023-05-16T03:56:27.657Z,52.37
2023-05-16T03:57:27.324Z,43.83
2023-05-16T03:58:27.685Z,60.42
2023-05-16T03:59:27.696Z,48.02
2023-05-16T04:00:27.713Z,52.69
2023-05-16T04:01:27.717Z,53.17
2023-05-16T04:02:27.794Z,58.17
2023-05-16T04:03:27.116Z,44.47
2023-05-16T04:04:27.105Z,43.02
2023-05-16T04:05:27.192Z,59.30
2023-05-16T04:06:27.089Z,43.83
2023-05-16T04:07:27.041Z,45.92
2023-05-16T04:08:27.166Z,44.79
2023-05-16T04:09:27.098Z,48.82
2023-05-16T04:10:27.280Z,44.31
2023-05-16T04:11:26.980Z,44.63
2023-05-16T04:12:27.013Z,49.63
2023-05-16T04:13:27.170Z,43.67
2023-05-16T04:14:26.947Z,45.12
2023-05-16T04:15:27.410Z,50.27
2023-05-16T04:16:27.321Z,55.43
2023-05-16T04:17:27.412Z,47.86
2023-05-16T04:18:27.388Z,49.79
2023-05-16T04:19:27.449Z,47.70
2023-05-16T04:20:27.494Z,55.91
2023-05-16T04:21:27.437Z,46.08
2023-05-16T04:22:27.659Z,47.53
2023-05-16T04:23:27.692Z,50.43
2023-05-16T04:24:27.763Z,47.05
2023-05-16T04:25:27.772Z,45.60
2023-05-16T04:26:27.797Z,50.76
2023-05-16T04:27:27.697Z,49.63
2023-05-16T04:28:27.863Z,45.76
2023-05-16T04:29:27.772Z,49.31
2023-05-16T04:30:27.671Z,52.21
2023-05-16T04:31:27.881Z,47.37
2023-05-16T04:32:27.605Z,47.86
2023-05-16T04:33:28.020Z,52.69
2023-05-16T04:34:26.934Z,48.34
2023-05-16T04:35:28.723Z,46.41
2023-05-16T04:36:26.982Z,50.92
2023-05-16T04:37:27.453Z,48.82
2023-05-16T04:38:27.551Z,46.73
2023-05-16T04:39:26.932Z,46.41
2023-05-16T04:40:26.833Z,47.70
2023-05-16T04:41:26.850Z,54.14
2023-05-16T04:42:26.905Z,47.86
2023-05-16T04:43:27.011Z,47.37
2023-05-16T04:44:27.060Z,49.95
2023-05-16T04:45:27.386Z,63.81
2023-05-16T04:46:26.879Z,46.89
2023-05-16T04:47:26.861Z,47.37
2023-05-16T04:48:26.776Z,48.98
2023-05-16T04:49:26.792Z,46.41
2023-05-16T04:50:26.748Z,45.28
2023-05-16T04:51:26.754Z,47.37
2023-05-16T04:52:26.756Z,49.31
2023-05-16T04:53:26.771Z,48.66
2023-05-16T04:54:26.797Z,47.05
2023-05-16T04:55:26.995Z,49.47
2023-05-16T04:56:26.820Z,46.41
2023-05-16T04:57:26.819Z,46.89
2023-05-16T04:58:26.846Z,46.89
2023-05-16T04:59:26.848Z,51.08
2023-05-16T05:00:27.065Z,53.50
2023-05-16T05:01:26.675Z,47.70
2023-05-16T05:02:26.714Z,50.92
2023-05-16T05:03:26.730Z,47.86
2023-05-16T05:04:26.795Z,47.21
2023-05-16T05:05:27.253Z,48.66
2023-05-16T05:06:26.888Z,45.44
2023-05-16T05:07:26.957Z,48.82
2023-05-16T05:08:26.760Z,43.67
2023-05-16T05:09:26.613Z,45.12
2023-05-16T05:10:26.634Z,48.66
2023-05-16T05:11:26.690Z,53.98
2023-05-16T05:12:26.789Z,48.66
2023-05-16T05:13:26.849Z,46.41
2023-05-16T05:14:26.920Z,45.76
2023-05-16T05:15:27.128Z,46.57
2023-05-16T05:16:27.029Z,48.02
2023-05-16T05:17:27.160Z,48.34
2023-05-16T05:18:27.124Z,55.75
2023-05-16T05:19:27.145Z,50.60
2023-05-16T05:20:27.114Z,45.92
2023-05-16T05:21:27.120Z,49.79
2023-05-16T05:22:27.134Z,58.33
2023-05-16T05:23:27.146Z,53.82
2023-05-16T05:24:26.556Z,63.00
2023-05-16T05:25:27.295Z,48.34
2023-05-16T05:26:27.182Z,47.70
2023-05-16T05:27:26.819Z,45.92
2023-05-16T05:28:27.210Z,52.05
2023-05-16T05:29:27.202Z,53.66
2023-05-16T05:30:26.742Z,48.34
2023-05-16T05:31:26.818Z,50.60
2023-05-16T05:32:26.841Z,47.70
2023-05-16T05:33:26.473Z,48.50
2023-05-16T05:35:35.756Z,47.53
2023-05-16T05:36:35.753Z,63.00
2023-05-16T05:37:37.330Z,49.47
2023-05-16T05:38:35.782Z,48.98
2023-05-16T05:39:35.798Z,60.59
2023-05-16T05:40:35.532Z,50.76
2023-05-16T05:41:35.527Z,47.70
2023-05-16T05:42:35.504Z,52.85
2023-05-16T05:43:35.579Z,47.53
2023-05-16T05:44:35.498Z,55.75
2023-05-16T05:45:35.500Z,52.21
2023-05-16T05:46:35.978Z,50.92
2023-05-16T05:47:35.553Z,52.21
2023-05-16T05:48:35.544Z,50.43
2023-05-16T05:49:35.963Z,59.62
2023-05-16T05:50:35.949Z,49.95
2023-05-16T05:51:35.731Z,50.60
2023-05-16T05:52:35.417Z,48.66
2023-05-16T05:53:35.422Z,47.70
2023-05-16T05:54:35.457Z,46.89
2023-05-16T05:55:35.466Z,48.34
2023-05-16T05:56:35.578Z,48.66
2023-05-16T05:57:36.856Z,48.18
2023-05-16T05:58:35.651Z,47.53
2023-05-16T05:59:35.402Z,47.86
2023-05-16T06:00:35.465Z,49.31
2023-05-16T06:01:35.454Z,51.24
2023-05-16T06:02:35.523Z,51.72
2023-05-16T06:03:35.500Z,49.63
2023-05-16T06:04:35.603Z,48.34
2023-05-16T06:05:35.410Z,52.21
2023-05-16T06:06:35.324Z,56.07
2023-05-16T06:07:35.340Z,50.60
2023-05-16T06:08:35.348Z,52.05
2023-05-16T06:09:35.362Z,51.88
2023-05-16T06:10:35.377Z,55.75
2023-05-16T06:11:35.321Z,51.08
2023-05-16T06:12:35.322Z,54.95
2023-05-16T06:13:35.346Z,49.31
2023-05-16T06:14:35.431Z,49.15
2023-05-16T06:15:35.375Z,60.42
2023-05-16T06:16:35.463Z,49.31
2023-05-16T06:17:35.495Z,54.14
2023-05-16T06:18:35.428Z,49.95
2023-05-16T06:19:35.501Z,48.98
2023-05-16T06:20:35.505Z,57.36
2023-05-16T06:21:35.531Z,53.66
2023-05-16T06:22:35.533Z,49.63
2023-05-16T06:23:35.250Z,46.25
2023-05-16T06:24:35.235Z,45.92
2023-05-16T06:25:35.284Z,47.05
2023-05-16T06:26:35.331Z,49.15
2023-05-16T06:27:35.445Z,47.70
2023-05-16T06:28:35.468Z,54.30
2023-05-16T06:29:35.505Z,47.70
2023-05-16T06:30:35.428Z,44.47
2023-05-16T06:31:35.738Z,46.57
2023-05-16T06:32:35.190Z,56.24
2023-05-16T06:33:35.383Z,43.99
2023-05-16T06:34:35.188Z,50.60
2023-05-16T06:35:35.214Z,48.98
2023-05-16T06:36:35.382Z,49.79
2023-05-16T06:37:35.707Z,49.95
2023-05-16T06:38:35.714Z,50.11
2023-05-16T06:39:35.290Z,50.27
2023-05-16T06:40:35.129Z,54.95
2023-05-16T06:41:35.269Z,62.52
2023-05-16T06:42:35.359Z,51.88
2023-05-16T06:43:35.158Z,55.91
2023-05-16T06:44:35.130Z,53.17
2023-05-16T06:45:35.203Z,44.79
2023-05-16T06:46:35.867Z,47.21
2023-05-16T06:47:35.528Z,47.70
2023-05-16T06:48:35.235Z,51.56
2023-05-16T06:49:37.099Z,46.89
2023-05-16T06:50:35.154Z,50.27
2023-05-16T06:51:35.060Z,49.63
2023-05-16T06:52:35.205Z,54.79
2023-05-16T06:53:35.045Z,50.27
2023-05-16T06:54:35.029Z,50.76
2023-05-16T06:55:35.210Z,49.95
2023-05-16T06:56:35.150Z,49.79
2023-05-16T06:57:35.050Z,54.46
2023-05-16T06:58:35.013Z,53.17
2023-05-16T06:59:35.009Z,52.53
2023-05-16T07:00:35.061Z,48.50
2023-05-16T07:01:35.116Z,49.31
2023-05-16T07:02:35.160Z,50.27
2023-05-16T07:03:35.100Z,44.15
2023-05-16T07:04:35.329Z,46.73
2023-05-16T07:05:35.118Z,46.25
2023-05-16T07:06:34.975Z,44.47
2023-05-16T07:07:35.008Z,46.08
2023-05-16T07:08:34.937Z,46.57
2023-05-16T07:09:34.978Z,49.63
2023-05-16T07:10:35.232Z,46.41
2023-05-16T07:11:35.186Z,47.70
2023-05-16T07:12:34.894Z,51.08
2023-05-16T07:13:36.145Z,58.33
2023-05-16T07:14:35.236Z,49.63
2023-05-16T07:15:35.237Z,47.21
2023-05-16T07:16:34.975Z,50.92
2023-05-16T07:17:35.006Z,50.76
2023-05-16T07:18:35.286Z,50.27
2023-05-16T07:19:35.293Z,51.56
2023-05-16T07:20:34.890Z,51.24
2023-05-16T07:21:34.862Z,50.27
2023-05-16T07:22:34.846Z,49.95
2023-05-16T07:23:34.874Z,50.27
2023-05-16T07:24:34.919Z,51.72
2023-05-16T07:25:34.977Z,51.56
2023-05-16T07:26:35.046Z,54.14
2023-05-16T07:27:34.809Z,51.56
2023-05-16T07:28:34.826Z,53.98
2023-05-16T07:29:34.805Z,50.76
2023-05-16T07:30:34.818Z,47.86
2023-05-16T07:31:34.851Z,45.76
2023-05-16T07:32:34.792Z,47.37
2023-05-16T07:33:34.890Z,53.01
2023-05-16T07:34:34.844Z,54.95
2023-05-16T07:35:34.878Z,45.44
2023-05-16T07:36:34.853Z,43.02
2023-05-16T07:37:34.743Z,44.79
2023-05-16T07:38:34.748Z,46.73
2023-05-16T07:39:34.863Z,45.92
2023-05-16T07:40:35.457Z,47.53
2023-05-16T07:41:34.710Z,43.83
2023-05-16T07:42:34.713Z,43.83
2023-05-16T07:43:34.723Z,44.96
2023-05-16T07:44:34.725Z,43.51
2023-05-16T07:45:34.699Z,47.53
2023-05-16T07:46:34.812Z,47.37
2023-05-16T07:47:34.773Z,51.24
2023-05-16T07:48:34.686Z,50.60
2023-05-16T07:49:34.814Z,48.02
2023-05-16T07:50:34.649Z,50.92
2023-05-16T07:51:34.674Z,47.21
2023-05-16T07:52:34.666Z,44.47
2023-05-16T07:53:34.692Z,45.44
2023-05-16T07:54:34.686Z,45.92
2023-05-16T07:55:35.765Z,49.63
2023-05-16T07:56:34.630Z,47.70
2023-05-16T07:57:34.635Z,45.92
2023-05-16T07:58:34.627Z,46.25
2023-05-16T07:59:34.683Z,49.47
2023-05-16T08:00:34.632Z,50.43
2023-05-16T08:01:34.635Z,48.98
2023-05-16T08:02:34.779Z,45.92
2023-05-16T08:03:34.685Z,50.60
2023-05-16T08:04:35.118Z,55.11
2023-05-16T08:05:34.678Z,56.56
2023-05-16T08:06:34.657Z,55.27
2023-05-16T08:07:34.677Z,54.62
2023-05-16T08:08:34.543Z,54.30
2023-05-16T08:09:34.696Z,52.69
2023-05-16T08:10:34.507Z,57.69
2023-05-16T08:11:34.506Z,46.25
2023-05-16T08:12:34.633Z,47.21
2023-05-16T08:13:34.638Z,46.73
2023-05-16T08:14:34.655Z,48.98
2023-05-16T08:15:34.551Z,50.60
2023-05-16T08:16:34.897Z,50.60
2023-05-16T08:17:34.574Z,46.73
2023-05-16T08:18:34.576Z,47.05
2023-05-16T08:19:34.460Z,49.31
2023-05-16T08:20:34.454Z,44.63
2023-05-16T08:21:34.447Z,50.76
2023-05-16T08:22:34.479Z,55.43
2023-05-16T08:23:34.429Z,57.69
2023-05-16T08:24:34.458Z,60.59
2023-05-16T08:25:34.513Z,54.79
2023-05-16T08:26:34.682Z,55.27
2023-05-16T08:27:34.570Z,55.27
2023-05-16T08:28:34.574Z,62.84
2023-05-16T08:29:34.579Z,53.17
2023-05-16T08:30:34.425Z,54.46
2023-05-16T08:31:34.619Z,51.72
2023-05-16T08:32:34.682Z,53.50
2023-05-16T08:33:34.627Z,50.76
2023-05-16T08:34:35.323Z,53.01
2023-05-16T08:35:34.486Z,51.08
2023-05-16T08:36:34.656Z,50.92
2023-05-16T08:37:34.661Z,44.96
2023-05-16T08:38:34.673Z,45.92
2023-05-16T08:39:34.693Z,46.73
2023-05-16T08:40:34.594Z,45.44
2023-05-16T08:41:34.716Z,53.33
2023-05-16T08:42:34.700Z,53.66
2023-05-16T08:43:34.617Z,55.59
2023-05-16T08:44:34.283Z,49.15
2023-05-16T08:45:34.298Z,47.53
2023-05-16T08:46:40.037Z,49.31
2023-05-16T08:47:34.310Z,48.02
2023-05-16T08:48:34.353Z,46.08
2023-05-16T08:49:34.433Z,47.70
2023-05-16T08:50:34.497Z,48.82
2023-05-16T08:51:34.425Z,49.15
2023-05-16T08:52:34.270Z,48.02
2023-05-16T08:53:34.715Z,50.27
2023-05-16T08:54:34.333Z,50.60
2023-05-16T08:55:34.242Z,52.37
2023-05-16T08:56:34.767Z,44.15
2023-05-16T08:57:34.349Z,46.08
2023-05-16T08:58:34.179Z,45.44
2023-05-16T08:59:34.383Z,58.65
2023-05-16T09:00:34.478Z,58.81
2023-05-16T09:01:34.609Z,47.86
2023-05-16T09:02:34.606Z,47.86
2023-05-16T09:03:34.208Z,47.53
2023-05-16T09:04:34.344Z,49.47
2023-05-16T09:05:34.658Z,47.70
2023-05-16T09:06:34.838Z,51.72
2023-05-16T09:07:34.178Z,46.89
2023-05-16T09:08:34.669Z,51.88
2023-05-16T09:09:34.683Z,56.40
2023-05-16T09:10:34.547Z,57.20
2023-05-16T09:11:36.947Z,52.69
2023-05-16T09:12:34.693Z,50.92
2023-05-16T09:13:34.710Z,54.62
2023-05-16T09:14:34.132Z,55.91
2023-05-16T09:15:34.082Z,55.43
2023-05-16T09:16:34.157Z,49.47
2023-05-16T09:17:39.541Z,52.05
2023-05-16T09:18:34.177Z,54.62
2023-05-16T09:19:34.233Z,51.72
2023-05-16T09:20:34.202Z,53.82
2023-05-16T09:21:34.366Z,48.18
2023-05-16T09:22:34.355Z,44.47
2023-05-16T09:23:36.955Z,48.66
2023-05-16T09:24:34.479Z,47.05
2023-05-16T09:25:34.579Z,51.24
2023-05-16T09:26:34.598Z,54.46
2023-05-16T09:27:34.657Z,54.95
2023-05-16T09:28:34.712Z,50.60
2023-05-16T09:29:36.061Z,56.24
2023-05-16T09:30:34.385Z,54.46
2023-05-16T09:31:34.025Z,50.92
2023-05-16T09:32:34.700Z,55.27
2023-05-16T09:33:34.001Z,58.33
2023-05-16T09:34:33.998Z,58.81
2023-05-16T09:36:34.013Z,63.00
2023-05-16T09:37:33.943Z,66.06
2023-05-16T09:38:33.955Z,56.88
2023-05-16T09:39:33.973Z,55.75
2023-05-16T09:40:34.131Z,57.04
2023-05-16T09:41:33.993Z,67.19
2023-05-16T09:42:34.007Z,66.06
2023-05-16T09:43:35.634Z,64.94
2023-05-16T09:44:33.886Z,65.10
2023-05-16T09:45:33.906Z,57.36
2023-05-16T09:46:33.978Z,56.88
2023-05-16T09:47:34.036Z,55.43
2023-05-16T09:48:34.113Z,53.66
2023-05-16T09:49:34.119Z,55.27
2023-05-16T09:50:33.917Z,49.95
2023-05-16T09:51:34.126Z,51.88
2023-05-16T09:52:33.875Z,50.60
2023-05-16T09:53:33.902Z,53.33
2023-05-16T09:54:33.942Z,51.40
2023-05-16T09:55:33.871Z,52.85
2023-05-16T09:56:34.034Z,54.79
2023-05-16T09:57:34.066Z,51.72
2023-05-16T09:58:34.099Z,56.72
2023-05-16T09:59:34.162Z,53.66
2023-05-16T10:00:34.244Z,51.88
2023-05-16T10:01:34.096Z,65.58
2023-05-16T10:02:34.317Z,52.21
2023-05-16T10:03:33.932Z,52.69
2023-05-16T10:04:34.292Z,56.88
2023-05-16T10:05:33.965Z,53.50
2023-05-16T10:06:34.344Z,48.34
2023-05-16T10:07:34.336Z,46.73
2023-05-16T10:08:34.056Z,47.37
2023-05-16T10:09:34.201Z,43.99
2023-05-16T10:10:34.379Z,44.79
2023-05-16T10:11:34.451Z,47.53
2023-05-16T10:12:33.747Z,52.37
2023-05-16T10:13:34.107Z,53.66
2023-05-16T10:14:34.428Z,61.07
2023-05-16T10:15:33.679Z,50.43
2023-05-16T10:16:33.754Z,52.21
2023-05-16T10:17:33.806Z,53.82
2023-05-16T10:18:33.809Z,58.01
2023-05-16T10:19:33.894Z,45.76
2023-05-16T10:20:33.933Z,52.85
2023-05-16T10:21:33.644Z,57.04
2023-05-16T10:22:34.039Z,54.14
2023-05-16T10:23:33.716Z,52.37
2023-05-16T10:24:34.163Z,47.37
2023-05-16T10:25:34.210Z,54.30
2023-05-16T10:26:34.295Z,49.15
2023-05-16T10:27:33.661Z,51.56
2023-05-16T10:28:33.726Z,52.21
2023-05-16T10:29:43.032Z,51.56
2023-05-16T10:30:33.661Z,49.47
2023-05-16T10:31:33.620Z,44.96
2023-05-16T10:32:33.612Z,43.99
2023-05-16T10:33:33.576Z,45.28
2023-05-16T10:34:33.574Z,50.92
2023-05-16T10:35:33.532Z,44.47
2023-05-16T10:36:33.598Z,46.41
2023-05-16T10:37:33.544Z,49.79
2023-05-16T10:38:33.559Z,47.37
2023-05-16T10:39:33.561Z,50.11
2023-05-16T10:40:33.582Z,46.73
2023-05-16T10:41:33.604Z,44.47
2023-05-16T10:42:33.630Z,43.83
2023-05-16T10:43:35.458Z,47.53
2023-05-16T10:44:33.465Z,46.89
2023-05-16T10:45:33.556Z,46.89
2023-05-16T10:46:33.674Z,48.66
2023-05-16T10:47:33.479Z,51.08
2023-05-16T10:48:33.476Z,52.21
2023-05-16T10:49:33.483Z,44.15
2023-05-16T10:50:34.457Z,45.60
2023-05-16T10:51:33.632Z,44.47
2023-05-16T10:52:33.774Z,60.10
2023-05-16T10:53:33.757Z,43.67
2023-05-16T10:54:34.182Z,53.66
2023-05-16T10:55:33.542Z,56.56
2023-05-16T10:56:33.424Z,51.08
2023-05-16T10:57:33.765Z,47.53
2023-05-16T10:58:33.704Z,53.01
2023-05-16T10:59:33.778Z,53.98
2023-05-16T11:00:33.790Z,48.66
2023-05-16T11:01:33.489Z,51.40
2023-05-16T11:02:33.650Z,52.53
2023-05-16T11:03:33.627Z,58.17
2023-05-16T11:04:33.509Z,54.79
2023-05-16T11:05:33.529Z,53.82
2023-05-16T11:06:33.514Z,49.95
2023-05-16T11:07:33.317Z,54.95
2023-05-16T11:08:33.305Z,58.17
2023-05-16T11:09:33.304Z,58.17
2023-05-16T11:10:33.319Z,58.01
2023-05-16T11:11:33.334Z,57.04
2023-05-16T11:12:33.339Z,45.92
2023-05-16T11:13:33.267Z,53.66
2023-05-16T11:14:33.324Z,52.05
2023-05-16T11:15:33.406Z,55.91
2023-05-16T11:16:33.469Z,61.71
2023-05-16T11:17:33.421Z,61.87
2023-05-16T11:18:33.490Z,60.91
2023-05-16T11:19:33.454Z,57.04
2023-05-16T11:20:33.453Z,57.20
2023-05-16T11:21:33.402Z,57.36
2023-05-16T11:22:33.281Z,57.85
2023-05-16T11:23:33.570Z,57.69
2023-05-16T11:24:33.501Z,54.79
2023-05-16T11:25:33.521Z,51.88
2023-05-16T11:26:33.302Z,58.01
2023-05-16T11:27:33.540Z,53.50
2023-05-16T11:28:33.552Z,48.66
2023-05-16T11:29:33.177Z,55.75
2023-05-16T11:30:33.561Z,52.21
2023-05-16T11:31:35.141Z,58.17
2023-05-16T11:32:33.620Z,58.33
2023-05-16T11:33:33.166Z,56.24
2023-05-16T11:34:33.238Z,59.46
2023-05-16T11:35:33.603Z,54.95
2023-05-16T11:36:33.268Z,54.79
2023-05-16T11:37:33.257Z,47.86
2023-05-16T11:38:33.526Z,52.69
2023-05-16T11:39:34.040Z,53.17
2023-05-16T11:40:33.504Z,53.01
2023-05-16T11:41:33.199Z,58.81
2023-05-16T11:42:33.093Z,57.20
2023-05-16T11:43:33.120Z,54.14
2023-05-16T11:44:33.197Z,60.91
2023-05-16T11:45:34.012Z,56.24
2023-05-16T11:46:33.121Z,56.40
2023-05-16T11:47:33.153Z,58.33
2023-05-16T11:48:36.477Z,53.50
2023-05-16T11:49:33.056Z,51.24
2023-05-16T11:50:33.279Z,55.11
2023-05-16T11:51:33.360Z,54.95
2023-05-16T11:52:33.365Z,58.33
2023-05-16T11:53:33.447Z,58.81
2023-05-16T11:54:33.476Z,54.95
2023-05-16T11:55:41.984Z,50.27
2023-05-16T11:56:33.448Z,48.98
2023-05-16T11:57:33.574Z,54.46
2023-05-16T11:58:33.634Z,58.65
2023-05-16T11:59:33.683Z,55.43
2023-05-16T12:00:33.074Z,54.30
2023-05-16T12:01:33.453Z,54.79
2023-05-16T12:02:33.850Z,60.26
2023-05-16T12:03:34.084Z,58.65
2023-05-16T12:04:33.127Z,58.81
2023-05-16T12:05:34.074Z,58.65
2023-05-16T12:06:32.958Z,60.26
2023-05-16T12:07:33.927Z,53.50
2023-05-16T12:08:33.387Z,53.01
2023-05-16T12:09:32.973Z,52.69
2023-05-16T12:10:33.023Z,46.08
2023-05-16T12:11:32.914Z,50.92
2023-05-16T12:12:33.018Z,53.98
2023-05-16T12:13:32.913Z,49.79
2023-05-16T12:14:32.888Z,48.18
2023-05-16T12:15:33.017Z,45.44
2023-05-16T12:16:33.223Z,47.53
2023-05-16T12:17:33.337Z,46.57
2023-05-16T12:18:32.918Z,47.53
2023-05-16T12:19:33.424Z,47.53
2023-05-16T12:20:33.750Z,45.12
2023-05-16T12:21:33.507Z,57.52
2023-05-16T12:22:33.434Z,46.57
2023-05-16T12:23:33.435Z,48.34
2023-05-16T12:24:33.705Z,49.47
2023-05-16T12:25:33.710Z,46.41
2023-05-16T12:26:32.813Z,45.44
2023-05-16T12:27:32.998Z,49.47
2023-05-16T12:28:33.320Z,47.70
2023-05-16T12:29:33.655Z,57.85
2023-05-16T12:30:33.818Z,47.86
2023-05-16T12:31:33.466Z,45.28
2023-05-16T12:32:32.846Z,49.47
2023-05-16T12:33:32.864Z,45.76
2023-05-16T12:34:32.744Z,44.79
2023-05-16T12:35:32.754Z,48.02
2023-05-16T12:36:32.791Z,44.96
2023-05-16T12:37:32.802Z,43.99
2023-05-16T12:38:32.773Z,49.79
2023-05-16T12:39:34.887Z,50.76
2023-05-16T12:40:33.025Z,48.66
2023-05-16T12:41:32.715Z,51.24
2023-05-16T12:42:32.883Z,48.18
2023-05-16T12:43:32.863Z,45.44
2023-05-16T12:44:32.827Z,49.47
2023-05-16T12:45:34.036Z,49.95
2023-05-16T12:46:32.821Z,49.47
2023-05-16T12:47:32.834Z,50.11
2023-05-16T12:48:32.855Z,56.40
2023-05-16T12:49:32.638Z,47.70
2023-05-16T12:50:32.933Z,45.92
2023-05-16T12:51:35.358Z,48.02
2023-05-16T12:52:32.853Z,43.83
2023-05-16T12:53:32.991Z,45.76
2023-05-16T12:54:33.023Z,45.76